Terminal Aerodrome Forecast
Issued by NWS

Home | Current Version | Previous Version | Text Only | Print | Product List | Glossary On
Versions: 1 2 3 4 5 6 7 8 9 10 11 12 13 14 15 16 17 18 19 20
000
FTUS43 KGRR 302340
TAFBTL
TAF
KBTL 302340Z 3100/3124 VRB03KT P6SM SCT035
     FM310330 00000KT 4SM BR SCT035
     FM310600 00000KT 1 1/2SM BR SCT015
     FM310800 00000KT 1SM BR OVC008
     FM311500 23006KT 6SM HZ BKN015
     FM311800 24007KT P6SM SCT040=

USA.gov is the U.S. government's official web portal to all federal, state and local government web resources and services.